createdAt,value
2023-05-10T00:00:40.704Z,162.16
2023-05-10T00:01:40.712Z,156.74
2023-05-10T00:02:40.809Z,157.08
2023-05-10T00:03:40.734Z,157.48
2023-05-10T00:04:40.637Z,159.05
2023-05-10T00:05:40.683Z,161.71
2023-05-10T00:06:40.754Z,161.62
2023-05-10T00:07:40.783Z,157.49
2023-05-10T00:08:40.816Z,161.25
2023-05-10T00:09:40.854Z,158.88
2023-05-10T00:10:40.892Z,159.60
2023-05-10T00:11:40.946Z,161.54
2023-05-10T00:12:41.124Z,162.61
2023-05-10T00:13:40.995Z,162.83
2023-05-10T00:14:41.030Z,160.41
2023-05-10T00:15:41.081Z,160.47
2023-05-10T00:16:41.157Z,157.62
2023-05-10T00:17:41.184Z,160.45
2023-05-10T00:18:41.209Z,161.90
2023-05-10T00:19:41.243Z,158.52
2023-05-10T00:20:41.293Z,161.54
2023-05-10T00:21:41.349Z,160.77
2023-05-10T00:22:41.381Z,156.21
2023-05-10T00:23:41.374Z,156.42
2023-05-10T00:24:41.348Z,156.92
2023-05-10T00:25:41.353Z,156.47
2023-05-10T00:26:41.328Z,157.41
2023-05-10T00:27:41.331Z,158.09
2023-05-10T00:28:41.314Z,160.03
2023-05-10T00:29:41.290Z,156.56
2023-05-10T00:30:41.292Z,157.10
2023-05-10T00:31:41.273Z,158.52
2023-05-10T00:32:41.261Z,160.68
2023-05-10T00:33:41.238Z,162.34
2023-05-10T00:34:41.233Z,163.62
2023-05-10T00:35:41.206Z,161.54
2023-05-10T00:36:41.208Z,157.34
2023-05-10T00:37:41.200Z,158.40
2023-05-10T00:38:41.171Z,158.81
2023-05-10T00:39:41.160Z,157.62
2023-05-10T00:40:41.140Z,159.11
2023-05-10T00:41:41.127Z,155.97
2023-05-10T00:42:41.120Z,157.05
2023-05-10T00:43:41.123Z,156.10
2023-05-10T00:44:41.096Z,157.65
2023-05-10T00:45:41.159Z,158.12
2023-05-10T00:46:41.056Z,161.42
2023-05-10T00:47:41.104Z,161.48
2023-05-10T00:48:41.028Z,161.75
2023-05-10T00:49:41.038Z,161.32
2023-05-10T00:50:41.032Z,160.28
2023-05-10T00:51:40.986Z,158.76
2023-05-10T00:52:40.998Z,159.48
2023-05-10T00:53:40.956Z,158.35
2023-05-10T00:54:40.937Z,158.92
2023-05-10T00:55:40.917Z,159.62
2023-05-10T00:56:40.907Z,158.55
2023-05-10T00:57:40.902Z,158.06
2023-05-10T00:58:40.881Z,159.05
2023-05-10T00:59:40.870Z,157.91
2023-05-10T01:00:40.839Z,157.89
2023-05-10T01:01:40.893Z,156.82
2023-05-10T01:02:40.942Z,156.57
2023-05-10T01:03:40.860Z,155.63
2023-05-10T01:04:40.855Z,155.14
2023-05-10T01:05:40.783Z,155.90
2023-05-10T01:06:40.750Z,156.24
2023-05-10T01:07:40.753Z,157.47
2023-05-10T01:08:40.750Z,157.91
2023-05-10T01:09:40.760Z,153.75
2023-05-10T01:10:40.802Z,154.80
2023-05-10T01:11:40.805Z,154.67
2023-05-10T01:12:40.892Z,153.28
2023-05-10T01:13:40.829Z,154.83
2023-05-10T01:14:40.829Z,155.58
2023-05-10T01:15:40.889Z,153.85
2023-05-10T01:16:40.876Z,158.19
2023-05-10T01:17:40.913Z,155.89
2023-05-10T01:18:40.908Z,156.35
2023-05-10T01:19:40.905Z,155.32
2023-05-10T01:20:40.963Z,157.17
2023-05-10T01:21:40.947Z,158.26
2023-05-10T01:22:40.966Z,156.38
2023-05-10T01:23:40.953Z,156.50
2023-05-10T01:24:40.943Z,156.79
2023-05-10T01:25:40.917Z,157.17
2023-05-10T01:26:40.916Z,156.59
2023-05-10T01:27:40.902Z,157.81
2023-05-10T01:28:41.134Z,156.52
2023-05-10T01:29:40.885Z,156.56
2023-05-10T01:30:40.848Z,157.24
2023-05-10T01:31:40.963Z,157.28
2023-05-10T01:32:40.829Z,157.68
2023-05-10T01:33:40.833Z,158.05
2023-05-10T01:34:40.795Z,156.21
2023-05-10T01:35:40.817Z,155.61
2023-05-10T01:36:40.778Z,158.30
2023-05-10T01:37:40.771Z,154.85
2023-05-10T01:38:40.740Z,155.64
2023-05-10T01:39:40.726Z,153.99
2023-05-10T01:40:40.703Z,155.77
2023-05-10T01:41:40.696Z,154.92
2023-05-10T01:42:40.699Z,153.11
2023-05-10T01:43:40.670Z,153.21
2023-05-10T01:44:40.680Z,153.82
2023-05-10T01:45:40.663Z,156.28
2023-05-10T01:46:40.704Z,156.08
2023-05-10T01:47:40.683Z,154.32
2023-05-10T01:48:40.672Z,155.72
2023-05-10T01:49:40.713Z,157.12
2023-05-10T01:50:40.653Z,157.21
2023-05-10T01:51:40.654Z,157.16
2023-05-10T01:52:40.653Z,155.13
2023-05-10T01:53:40.624Z,156.82
2023-05-10T01:54:40.598Z,156.82
2023-05-10T01:55:40.587Z,156.94
2023-05-10T01:56:40.572Z,156.94
2023-05-10T01:57:40.599Z,157.85
2023-05-10T01:58:40.583Z,156.18
2023-05-10T01:59:40.532Z,157.69
2023-05-10T02:00:40.577Z,157.12
2023-05-10T02:01:40.500Z,159.51
2023-05-10T02:02:40.506Z,157.44
2023-05-10T02:03:40.519Z,157.88
2023-05-10T02:04:40.459Z,159.18
2023-05-10T02:05:40.444Z,157.09
2023-05-10T02:06:40.438Z,156.09
2023-05-10T02:07:40.426Z,158.72
2023-05-10T02:08:40.426Z,159.35
2023-05-10T02:09:40.440Z,160.55
2023-05-10T02:10:40.428Z,160.62
2023-05-10T02:11:40.423Z,160.54
2023-05-10T02:12:40.422Z,158.62
2023-05-10T02:13:40.407Z,160.03
2023-05-10T02:14:40.402Z,159.32
2023-05-10T02:15:40.386Z,157.40
2023-05-10T02:16:40.388Z,160.65
2023-05-10T02:17:40.368Z,160.27
2023-05-10T02:18:40.358Z,161.15
2023-05-10T02:19:40.335Z,161.13
2023-05-10T02:20:40.325Z,160.69
2023-05-10T02:21:40.397Z,159.74
2023-05-10T02:22:40.293Z,162.65
2023-05-10T02:23:40.277Z,162.16
2023-05-10T02:24:40.301Z,162.10
2023-05-10T02:25:40.259Z,162.17
2023-05-10T02:26:40.240Z,163.15
2023-05-10T02:27:40.205Z,163.08
2023-05-10T02:28:40.222Z,163.16
2023-05-10T02:29:40.205Z,165.73
2023-05-10T02:30:40.228Z,164.02
2023-05-10T02:31:40.270Z,165.02
2023-05-10T02:32:40.284Z,166.96
2023-05-10T02:33:40.291Z,167.33
2023-05-10T02:34:40.297Z,169.85
2023-05-10T02:35:40.326Z,170.73
2023-05-10T02:36:40.349Z,170.96
2023-05-10T02:37:40.374Z,169.46
2023-05-10T02:38:40.402Z,171.40
2023-05-10T02:39:40.415Z,170.93
2023-05-10T02:40:40.431Z,172.37
2023-05-10T02:41:40.467Z,173.25
2023-05-10T02:42:40.506Z,172.35
2023-05-10T02:43:40.500Z,176.27
2023-05-10T02:44:40.510Z,173.25
2023-05-10T02:45:40.532Z,173.19
2023-05-10T02:46:40.548Z,175.06
2023-05-10T02:47:40.624Z,173.21
2023-05-10T02:48:40.590Z,173.94
2023-05-10T02:49:40.625Z,174.67
2023-05-10T02:50:40.684Z,174.74
2023-05-10T02:51:40.679Z,174.80
2023-05-10T02:52:40.728Z,175.01
2023-05-10T02:53:40.628Z,175.19
2023-05-10T02:54:40.626Z,174.85
2023-05-10T02:55:40.599Z,175.13
2023-05-10T02:56:40.592Z,174.92
2023-05-10T02:57:40.564Z,175.94
2023-05-10T02:58:40.573Z,176.02
2023-05-10T02:59:40.535Z,177.24
2023-05-10T03:00:40.525Z,176.30
2023-05-10T03:01:40.667Z,176.79
2023-05-10T03:02:40.575Z,177.45
2023-05-10T03:03:40.472Z,175.72
2023-05-10T03:04:40.522Z,175.55
2023-05-10T03:05:40.443Z,175.53
2023-05-10T03:06:40.433Z,176.44
2023-05-10T03:07:40.476Z,174.45
2023-05-10T03:08:40.536Z,176.12
2023-05-10T03:09:40.568Z,175.68
2023-05-10T03:10:40.623Z,177.33
2023-05-10T03:11:40.690Z,176.62
2023-05-10T03:12:40.711Z,177.59
2023-05-10T03:13:40.778Z,177.23
2023-05-10T03:14:40.830Z,178.22
2023-05-10T03:15:40.940Z,179.20
2023-05-10T03:16:42.746Z,178.82
2023-05-10T03:17:40.912Z,180.05
2023-05-10T03:18:40.896Z,178.74
2023-05-10T03:19:40.896Z,179.23
2023-05-10T03:20:40.859Z,179.59
2023-05-10T03:21:40.838Z,179.74
2023-05-10T03:22:40.830Z,180.51
2023-05-10T03:23:40.811Z,178.78
2023-05-10T03:24:40.792Z,180.36
2023-05-10T03:25:40.833Z,178.72
2023-05-10T03:26:40.764Z,180.61
2023-05-10T03:27:40.775Z,180.40
2023-05-10T03:28:40.801Z,181.21
2023-05-10T03:29:40.715Z,179.55
2023-05-10T03:30:40.703Z,181.43
2023-05-10T03:31:40.728Z,182.36
2023-05-10T03:32:40.737Z,182.46
2023-05-10T03:33:40.673Z,182.47
2023-05-10T03:34:40.659Z,180.52
2023-05-10T03:35:40.650Z,182.79
2023-05-10T03:36:40.626Z,183.22
2023-05-10T03:37:40.610Z,183.36
2023-05-10T03:38:40.583Z,183.50
2023-05-10T03:39:40.587Z,184.19
2023-05-10T03:40:40.550Z,184.45
2023-05-10T03:41:40.537Z,184.17
2023-05-10T03:42:40.530Z,184.10
2023-05-10T03:43:40.486Z,183.07
2023-05-10T03:44:40.472Z,184.17
2023-05-10T03:45:40.457Z,185.71
2023-05-10T03:46:40.476Z,184.50
2023-05-10T03:47:40.414Z,186.45
2023-05-10T03:48:40.398Z,184.82
2023-05-10T03:49:40.377Z,185.62
2023-05-10T03:50:40.373Z,187.84
2023-05-10T03:51:40.335Z,186.14
2023-05-10T03:52:40.327Z,186.20
2023-05-10T03:53:40.306Z,187.36
2023-05-10T03:54:40.293Z,186.55
2023-05-10T03:55:40.275Z,187.70
2023-05-10T03:56:40.272Z,186.29
2023-05-10T03:57:40.286Z,186.74
2023-05-10T03:58:40.286Z,186.82
2023-05-10T03:59:40.284Z,190.25
2023-05-10T04:00:40.308Z,187.31
2023-05-10T04:01:40.388Z,187.79
2023-05-10T04:02:40.476Z,188.40
2023-05-10T04:03:40.407Z,189.21
2023-05-10T04:04:40.393Z,188.35
2023-05-10T04:05:40.392Z,188.32
2023-05-10T04:06:40.461Z,189.44
2023-05-10T04:07:40.437Z,189.29
2023-05-10T04:08:40.464Z,191.23
2023-05-10T04:09:40.483Z,190.90
2023-05-10T04:10:40.505Z,192.67
2023-05-10T04:11:40.502Z,189.66
2023-05-10T04:12:40.519Z,191.56
2023-05-10T04:13:40.621Z,192.08
2023-05-10T04:14:40.545Z,191.43
2023-05-10T04:15:40.558Z,192.22
2023-05-10T04:16:40.676Z,192.12
2023-05-10T04:17:40.754Z,190.49
2023-05-10T04:18:40.628Z,191.81
2023-05-10T04:19:40.619Z,192.12
2023-05-10T04:20:40.653Z,190.61
2023-05-10T04:21:40.660Z,191.01
2023-05-10T04:22:40.708Z,191.39
2023-05-10T04:23:40.770Z,190.41
2023-05-10T04:24:40.829Z,193.22
2023-05-10T04:25:40.832Z,190.85
2023-05-10T04:26:40.860Z,192.95
2023-05-10T04:27:40.935Z,192.81
2023-05-10T04:28:40.930Z,194.75
2023-05-10T04:29:40.922Z,195.65
2023-05-10T04:30:40.981Z,192.59
2023-05-10T04:31:40.982Z,194.40
2023-05-10T04:32:41.040Z,195.23
2023-05-10T04:33:41.042Z,194.85
2023-05-10T04:34:41.073Z,197.58
2023-05-10T04:35:41.149Z,196.92
2023-05-10T04:36:41.056Z,196.97
2023-05-10T04:37:41.053Z,197.05
2023-05-10T04:38:41.046Z,197.58
2023-05-10T04:39:42.394Z,198.76
2023-05-10T04:40:41.041Z,199.64
2023-05-10T04:41:41.040Z,197.08
2023-05-10T04:42:41.031Z,197.43
2023-05-10T04:43:41.015Z,198.52
2023-05-10T04:44:41.010Z,198.90
2023-05-10T04:45:41.001Z,199.39
2023-05-10T04:46:41.111Z,200.32
2023-05-10T04:47:41.024Z,201.81
2023-05-10T04:48:41.019Z,200.76
2023-05-10T04:49:41.017Z,200.90
2023-05-10T04:50:40.988Z,201.25
2023-05-10T04:51:40.999Z,201.33
2023-05-10T04:52:40.980Z,202.21
2023-05-10T04:53:41.871Z,202.51
2023-05-10T04:54:41.078Z,202.83
2023-05-10T04:55:40.952Z,200.50
2023-05-10T04:56:40.953Z,201.67
2023-05-10T04:57:40.948Z,203.21
2023-05-10T04:58:40.942Z,200.93
2023-05-10T04:59:40.948Z,202.09
2023-05-10T05:00:40.970Z,199.08
2023-05-10T05:01:40.956Z,203.28
2023-05-10T05:02:41.003Z,202.50
2023-05-10T05:03:41.059Z,203.41
2023-05-10T05:04:41.005Z,202.28
2023-05-10T05:05:41.042Z,204.06
2023-05-10T05:06:41.063Z,201.76
2023-05-10T05:07:41.073Z,204.84
2023-05-10T05:08:41.111Z,203.50
2023-05-10T05:09:41.116Z,202.28
2023-05-10T05:10:41.186Z,201.57
2023-05-10T05:11:41.167Z,203.38
2023-05-10T05:12:41.183Z,204.39
2023-05-10T05:13:41.232Z,204.49
2023-05-10T05:14:41.231Z,204.06
2023-05-10T05:15:41.259Z,203.18
2023-05-10T05:16:41.359Z,202.42
2023-05-10T05:17:41.353Z,204.53
2023-05-10T05:18:41.347Z,202.64
2023-05-10T05:19:41.396Z,203.58
2023-05-10T05:20:41.391Z,202.17
2023-05-10T05:21:41.420Z,205.16
2023-05-10T05:22:41.459Z,204.58
2023-05-10T05:23:41.491Z,204.93
2023-05-10T05:24:41.508Z,203.27
2023-05-10T05:25:41.528Z,205.99
2023-05-10T05:26:41.549Z,204.07
2023-05-10T05:27:41.561Z,204.24
2023-05-10T05:28:41.586Z,204.59
2023-05-10T05:29:41.638Z,205.27
2023-05-10T05:30:41.631Z,207.18
2023-05-10T05:31:41.667Z,208.28
2023-05-10T05:32:41.686Z,208.27
2023-05-10T05:33:41.714Z,208.78
2023-05-10T05:34:41.710Z,212.81
2023-05-10T05:35:41.756Z,226.02
2023-05-10T05:36:41.782Z,236.34
2023-05-10T05:37:41.785Z,246.70
2023-05-10T05:38:41.837Z,250.74
2023-05-10T05:39:41.796Z,250.00
2023-05-10T05:40:41.788Z,250.00
2023-05-10T05:41:41.770Z,249.79
2023-05-10T05:42:41.790Z,249.07
2023-05-10T05:43:41.771Z,250.00
2023-05-10T05:44:41.768Z,249.27
2023-05-10T05:45:41.798Z,249.85
2023-05-10T05:46:41.799Z,250.00
2023-05-10T05:47:41.866Z,250.13
2023-05-10T05:48:41.770Z,249.34
2023-05-10T05:49:41.887Z,242.79
2023-05-10T05:50:41.775Z,250.00
2023-05-10T05:51:41.751Z,239.67
2023-05-10T05:52:41.742Z,243.62
2023-05-10T05:53:41.750Z,232.52
2023-05-10T05:54:41.746Z,251.78
2023-05-10T05:55:41.713Z,256.89
2023-05-10T05:56:41.715Z,246.73
2023-05-10T05:57:41.716Z,243.91
2023-05-10T05:58:41.689Z,253.21
2023-05-10T05:59:41.933Z,253.52
2023-05-10T06:00:41.665Z,255.00
2023-05-10T06:01:41.711Z,260.77
2023-05-10T06:02:41.733Z,267.33
2023-05-10T06:03:41.687Z,286.45
2023-05-10T06:04:44.445Z,271.51
2023-05-10T06:05:41.557Z,259.86
2023-05-10T06:06:42.553Z,259.98
2023-05-10T06:07:41.567Z,260.04
2023-05-10T06:08:41.589Z,260.89
2023-05-10T06:09:41.486Z,262.63
2023-05-10T06:10:41.443Z,266.20
2023-05-10T06:11:41.441Z,255.97
2023-05-10T06:12:41.371Z,250.00
2023-05-10T06:13:41.356Z,250.09
2023-05-10T06:14:41.331Z,250.72
2023-05-10T06:15:41.308Z,252.55
2023-05-10T06:16:41.362Z,255.17
2023-05-10T06:17:41.281Z,261.22
2023-05-10T06:18:41.226Z,251.89
2023-05-10T06:19:41.383Z,249.86
2023-05-10T06:20:41.283Z,249.68
2023-05-10T06:21:41.146Z,250.00
2023-05-10T06:22:41.237Z,249.64
2023-05-10T06:23:41.302Z,249.66
2023-05-10T06:24:41.266Z,249.85
2023-05-10T06:25:41.334Z,250.00
2023-05-10T06:26:41.321Z,250.00
2023-05-10T06:27:41.356Z,250.08
2023-05-10T06:28:41.420Z,250.00
2023-05-10T06:29:41.467Z,249.50
2023-05-10T06:30:41.513Z,249.91
2023-05-10T06:31:41.591Z,250.00
2023-05-10T06:32:41.602Z,250.00
2023-05-10T06:33:41.605Z,249.52
2023-05-10T06:34:41.610Z,249.86
2023-05-10T06:35:41.642Z,249.45
2023-05-10T06:36:41.677Z,249.83
2023-05-10T06:37:41.701Z,250.00
2023-05-10T06:38:41.757Z,249.58
2023-05-10T06:39:41.795Z,249.82
2023-05-10T06:40:41.779Z,249.90
2023-05-10T06:41:42.335Z,248.36
2023-05-10T06:42:41.846Z,248.45
2023-05-10T06:43:41.864Z,247.18
2023-05-10T06:44:41.905Z,243.36
2023-05-10T06:45:41.956Z,242.09
2023-05-10T06:46:42.146Z,238.94
2023-05-10T06:47:42.020Z,235.95
2023-05-10T06:48:42.148Z,233.85
2023-05-10T06:49:42.071Z,231.91
2023-05-10T06:50:42.086Z,229.92
2023-05-10T06:51:42.160Z,229.08
2023-05-10T06:52:42.183Z,226.65
2023-05-10T06:53:42.238Z,223.04
2023-05-10T06:54:42.161Z,218.86
2023-05-10T06:55:42.145Z,218.16
2023-05-10T06:56:42.111Z,217.19
2023-05-10T06:57:42.131Z,216.66
2023-05-10T06:58:42.094Z,215.41
2023-05-10T06:59:42.092Z,217.06
2023-05-10T07:00:42.149Z,217.13
2023-05-10T07:01:42.026Z,217.25
2023-05-10T07:02:42.114Z,216.76
2023-05-10T07:03:41.988Z,216.33
2023-05-10T07:04:41.961Z,214.68
2023-05-10T07:05:41.979Z,212.94
2023-05-10T07:06:41.977Z,212.19
2023-05-10T07:07:41.902Z,210.97
2023-05-10T07:08:41.831Z,210.06
2023-05-10T07:09:41.839Z,209.93
2023-05-10T07:10:41.755Z,208.40
2023-05-10T07:11:41.738Z,206.97
2023-05-10T07:12:41.792Z,205.54
2023-05-10T07:13:41.714Z,208.13
2023-05-10T07:14:41.702Z,208.95
2023-05-10T07:15:41.647Z,209.44
2023-05-10T07:16:41.803Z,209.01
2023-05-10T07:17:43.215Z,209.05
2023-05-10T07:18:41.771Z,209.05
2023-05-10T07:19:41.769Z,207.74
2023-05-10T07:20:41.678Z,206.97
2023-05-10T07:21:41.657Z,208.93
2023-05-10T07:22:41.633Z,204.82
2023-05-10T07:23:42.505Z,203.18
2023-05-10T07:24:41.515Z,205.36
2023-05-10T07:25:41.524Z,205.45
2023-05-10T07:26:41.503Z,197.48
2023-05-10T07:27:41.515Z,196.53
2023-05-10T07:28:41.423Z,193.56
2023-05-10T07:29:41.442Z,191.82
2023-05-10T07:30:41.406Z,194.16
2023-05-10T07:31:41.438Z,196.06
2023-05-10T07:32:41.348Z,196.56
2023-05-10T07:33:41.289Z,196.80
2023-05-10T07:34:41.270Z,196.77
2023-05-10T07:35:41.271Z,194.02
2023-05-10T07:36:41.240Z,194.03
2023-05-10T07:37:41.234Z,192.92
2023-05-10T07:38:41.246Z,194.88
2023-05-10T07:39:41.161Z,196.44
2023-05-10T07:40:41.158Z,201.09
2023-05-10T07:41:41.148Z,173.94
2023-05-10T07:42:41.097Z,143.20
2023-05-10T07:43:41.140Z,122.71
2023-05-10T07:44:41.069Z,110.12
2023-05-10T07:45:41.136Z,104.02
2023-05-10T07:46:41.008Z,99.49
2023-05-10T07:47:41.027Z,95.52
2023-05-10T07:48:40.964Z,86.30
2023-05-10T07:49:40.946Z,80.73
2023-05-10T07:50:40.944Z,82.56
2023-05-10T07:51:40.914Z,85.71
2023-05-10T07:52:40.941Z,91.05
2023-05-10T07:53:40.881Z,96.92
2023-05-10T07:54:40.844Z,103.25
2023-05-10T07:55:40.866Z,104.53
2023-05-10T07:56:40.901Z,107.88
2023-05-10T07:57:40.854Z,109.46
2023-05-10T07:58:40.795Z,115.16
2023-05-10T07:59:40.822Z,119.24
2023-05-10T08:00:40.859Z,120.82
2023-05-10T08:01:40.920Z,107.10
2023-05-10T08:02:41.062Z,98.19
2023-05-10T08:03:41.128Z,92.08
2023-05-10T08:04:41.218Z,88.95
2023-05-10T08:05:41.158Z,84.03
2023-05-10T08:06:41.306Z,79.40
2023-05-10T08:07:41.140Z,75.00
2023-05-10T08:08:41.178Z,70.15
2023-05-10T08:09:41.183Z,66.02
2023-05-10T08:10:41.208Z,58.37
2023-05-10T08:11:41.203Z,54.68
2023-05-10T08:12:41.244Z,51.10
2023-05-10T08:13:41.215Z,51.45
2023-05-10T08:14:41.285Z,62.55
2023-05-10T08:15:41.291Z,74.49
2023-05-10T08:16:41.284Z,87.68
2023-05-10T08:17:41.320Z,99.01
2023-05-10T08:18:41.299Z,97.16
2023-05-10T08:19:41.307Z,98.39
2023-05-10T08:20:41.957Z,97.46
2023-05-10T08:21:41.409Z,101.73
2023-05-10T08:22:41.335Z,99.13
2023-05-10T08:23:41.346Z,100.87
2023-05-10T08:24:41.344Z,97.10
2023-05-10T08:25:41.456Z,90.24
2023-05-10T08:26:41.398Z,86.10
2023-05-10T08:27:41.374Z,81.00
2023-05-10T08:28:41.336Z,73.20
2023-05-10T08:29:49.672Z,65.30
2023-05-10T08:30:42.390Z,65.64
2023-05-10T08:31:41.288Z,67.61
2023-05-10T08:32:41.344Z,74.09
2023-05-10T08:33:42.307Z,84.94
2023-05-10T08:34:41.349Z,99.93
2023-05-10T08:35:41.421Z,106.94
2023-05-10T08:36:41.473Z,107.05
2023-05-10T08:37:41.463Z,108.77
2023-05-10T08:38:41.456Z,106.74
2023-05-10T08:39:41.539Z,102.41
2023-05-10T08:40:41.555Z,96.67
2023-05-10T08:41:41.496Z,96.47
2023-05-10T08:42:41.509Z,98.27
2023-05-10T08:43:41.467Z,96.46
2023-05-10T08:44:41.450Z,85.69
2023-05-10T08:45:41.461Z,74.97
2023-05-10T08:46:41.521Z,67.46
2023-05-10T08:47:41.420Z,69.12
2023-05-10T08:48:41.760Z,70.87
2023-05-10T08:49:41.396Z,77.50
2023-05-10T08:50:41.342Z,83.60
2023-05-10T08:51:43.818Z,88.81
2023-05-10T08:52:41.309Z,88.81
2023-05-10T08:53:41.299Z,82.68
2023-05-10T08:54:41.276Z,73.53
2023-05-10T08:55:41.254Z,66.57
2023-05-10T08:56:41.256Z,64.11
2023-05-10T08:57:41.232Z,64.99
2023-05-10T08:58:41.264Z,62.19
2023-05-10T08:59:41.231Z,63.37
2023-05-10T09:00:41.256Z,60.83
2023-05-10T09:01:41.216Z,67.02
2023-05-10T09:02:41.262Z,70.87
2023-05-10T09:03:41.283Z,81.15
2023-05-10T09:04:41.215Z,88.81
2023-05-10T09:05:41.170Z,99.30
2023-05-10T09:06:41.149Z,105.52
2023-05-10T09:07:41.174Z,104.00
2023-05-10T09:08:41.100Z,102.55
2023-05-10T09:09:41.082Z,102.65
2023-05-10T09:10:41.081Z,102.39
2023-05-10T09:11:41.048Z,98.75
2023-05-10T09:12:41.044Z,96.35
2023-05-10T09:13:41.009Z,96.83
2023-05-10T09:14:41.005Z,97.60
2023-05-10T09:15:41.015Z,101.72
2023-05-10T09:16:40.958Z,106.20
2023-05-10T09:17:40.963Z,108.50
2023-05-10T09:18:41.033Z,108.80
2023-05-10T09:19:40.907Z,98.12
2023-05-10T09:20:41.340Z,90.67
2023-05-10T09:21:40.930Z,90.41
2023-05-10T09:22:40.853Z,87.70
2023-05-10T09:23:40.857Z,91.48
2023-05-10T09:24:40.822Z,90.85
2023-05-10T09:25:40.828Z,89.41
2023-05-10T09:26:40.789Z,89.66
2023-05-10T09:27:40.859Z,88.25
2023-05-10T09:28:40.944Z,89.57
2023-05-10T09:29:40.774Z,90.83
2023-05-10T09:30:40.773Z,85.72
2023-05-10T09:31:40.744Z,82.01
2023-05-10T09:32:40.839Z,79.64
2023-05-10T09:33:40.734Z,84.10
2023-05-10T09:34:40.703Z,79.40
2023-05-10T09:35:40.676Z,74.87
2023-05-10T09:36:40.672Z,75.76
2023-05-10T09:37:40.645Z,70.61
2023-05-10T09:38:40.643Z,69.81
2023-05-10T09:39:40.644Z,72.20
2023-05-10T09:40:40.632Z,82.41
2023-05-10T09:41:40.616Z,96.43
2023-05-10T09:42:41.344Z,103.09
2023-05-10T09:43:40.623Z,102.56
2023-05-10T09:44:40.597Z,103.44
2023-05-10T09:45:40.626Z,97.51
2023-05-10T09:46:40.658Z,105.12
2023-05-10T09:47:40.636Z,87.17
2023-05-10T09:48:40.589Z,64.75
2023-05-10T09:49:40.627Z,44.46
2023-05-10T09:50:40.606Z,33.24
2023-05-10T09:51:40.674Z,24.43
2023-05-10T09:52:40.574Z,24.70
2023-05-10T09:53:40.608Z,24.48
2023-05-10T09:54:40.784Z,25.10
2023-05-10T09:55:40.850Z,25.00
2023-05-10T09:56:40.624Z,25.51
2023-05-10T09:57:40.590Z,25.69
2023-05-10T09:58:40.585Z,26.13
2023-05-10T09:59:40.627Z,26.09
2023-05-10T10:00:40.559Z,26.86
2023-05-10T10:01:40.652Z,26.20
2023-05-10T10:02:40.565Z,25.51
2023-05-10T10:03:40.521Z,25.00
2023-05-10T10:04:40.559Z,24.94
2023-05-10T10:05:40.489Z,25.00
2023-05-10T10:06:40.507Z,24.81
2023-05-10T10:07:40.497Z,27.62
2023-05-10T10:08:40.478Z,30.94
2023-05-10T10:09:40.464Z,31.11
2023-05-10T10:10:40.482Z,29.38
2023-05-10T10:11:40.454Z,29.51
2023-05-10T10:12:40.450Z,29.43
2023-05-10T10:13:40.436Z,32.14
2023-05-10T10:14:40.441Z,31.24
2023-05-10T10:15:40.686Z,31.30
2023-05-10T10:16:48.695Z,31.97
2023-05-10T10:17:41.500Z,31.80
2023-05-10T10:18:40.455Z,34.95
2023-05-10T10:19:40.417Z,41.72
2023-05-10T10:20:40.416Z,53.25
2023-05-10T10:21:40.491Z,67.27
2023-05-10T10:22:40.352Z,65.15
2023-05-10T10:23:40.355Z,66.56
2023-05-10T10:24:40.373Z,67.59
2023-05-10T10:25:40.367Z,61.74
2023-05-10T10:26:40.334Z,54.33
2023-05-10T10:27:40.366Z,50.48
2023-05-10T10:28:40.324Z,43.65
2023-05-10T10:29:40.299Z,50.18
2023-05-10T10:30:40.290Z,58.51
2023-05-10T10:31:40.348Z,68.36
2023-05-10T10:32:40.270Z,75.80
2023-05-10T10:33:40.232Z,84.65
2023-05-10T10:34:40.243Z,89.40
2023-05-10T10:35:40.232Z,99.64
2023-05-10T10:36:40.237Z,104.85
2023-05-10T10:37:40.331Z,107.93
2023-05-10T10:38:40.219Z,109.94
2023-05-10T10:39:40.179Z,113.71
2023-05-10T10:40:40.364Z,122.23
2023-05-10T10:41:40.153Z,130.46
2023-05-10T10:42:40.241Z,136.26
2023-05-10T10:43:40.101Z,129.85
2023-05-10T10:44:40.228Z,125.75
2023-05-10T10:45:41.329Z,122.49
2023-05-10T10:46:40.140Z,112.31
2023-05-10T10:47:40.038Z,105.07
2023-05-10T10:48:40.063Z,102.73
2023-05-10T10:49:40.013Z,98.71
2023-05-10T10:50:39.992Z,99.94
2023-05-10T10:51:39.993Z,95.38
2023-05-10T10:52:40.036Z,92.35
2023-05-10T10:53:39.942Z,91.81
2023-05-10T10:54:39.915Z,92.47
2023-05-10T10:55:39.891Z,92.43
2023-05-10T10:56:39.915Z,92.54
2023-05-10T10:57:39.869Z,92.28
2023-05-10T10:58:39.848Z,88.16
2023-05-10T10:59:39.840Z,83.33
2023-05-10T11:00:39.911Z,80.82
2023-05-10T11:01:39.829Z,76.07
2023-05-10T11:02:39.803Z,75.11
2023-05-10T11:03:39.812Z,75.12
2023-05-10T11:04:39.808Z,71.80
2023-05-10T11:05:39.758Z,69.93
2023-05-10T11:06:39.778Z,66.70
2023-05-10T11:07:39.705Z,61.82
2023-05-10T11:08:39.686Z,61.35
2023-05-10T11:09:39.734Z,57.18
2023-05-10T11:10:39.682Z,48.46
2023-05-10T11:11:39.697Z,41.00
2023-05-10T11:12:39.627Z,35.18
2023-05-10T11:13:39.630Z,35.21
2023-05-10T11:14:39.628Z,31.01
2023-05-10T11:15:39.587Z,28.55
2023-05-10T11:16:39.579Z,25.25
2023-05-10T11:17:39.636Z,25.57
2023-05-10T11:18:39.571Z,27.47
2023-05-10T11:19:39.510Z,27.17
2023-05-10T11:20:39.494Z,29.47
2023-05-10T11:21:39.491Z,29.21
2023-05-10T11:22:39.466Z,24.72
2023-05-10T11:23:39.484Z,22.78
2023-05-10T11:24:39.432Z,24.26
2023-05-10T11:25:39.436Z,37.70
2023-05-10T11:26:39.475Z,38.78
2023-05-10T11:27:39.382Z,44.65
2023-05-10T11:28:39.402Z,61.78
2023-05-10T11:29:39.342Z,68.65
2023-05-10T11:30:39.448Z,75.13
2023-05-10T11:31:39.341Z,86.38
2023-05-10T11:32:39.363Z,98.19
2023-05-10T11:33:39.313Z,112.36
2023-05-10T11:34:39.318Z,126.94
2023-05-10T11:35:41.060Z,141.58
2023-05-10T11:36:39.293Z,154.53
2023-05-10T11:37:39.263Z,154.86
2023-05-10T11:38:39.254Z,157.02
2023-05-10T11:39:39.252Z,162.27
2023-05-10T11:40:39.202Z,171.30
2023-05-10T11:41:40.040Z,155.61
2023-05-10T11:42:39.200Z,159.61
2023-05-10T11:43:39.168Z,155.78
2023-05-10T11:44:39.124Z,160.33
2023-05-10T11:45:39.131Z,168.39
2023-05-10T11:46:39.124Z,155.91
2023-05-10T11:47:40.854Z,160.73
2023-05-10T11:48:39.067Z,155.95
2023-05-10T11:49:39.051Z,160.85
2023-05-10T11:50:39.018Z,168.44
2023-05-10T11:51:39.000Z,178.67
2023-05-10T11:52:38.993Z,190.80
2023-05-10T11:53:38.995Z,191.36
2023-05-10T11:54:38.957Z,192.17
2023-05-10T11:55:38.964Z,190.43
2023-05-10T11:56:38.914Z,189.81
2023-05-10T11:57:38.881Z,188.86
2023-05-10T11:58:38.877Z,188.91
2023-05-10T11:59:40.284Z,188.77
2023-05-10T12:00:38.844Z,188.86
2023-05-10T12:01:38.814Z,186.70
2023-05-10T12:02:38.875Z,186.00
2023-05-10T12:04:38.823Z,184.17
2023-05-10T12:05:39.742Z,183.09
2023-05-10T12:06:38.768Z,182.33
2023-05-10T12:07:38.694Z,180.40
2023-05-10T12:08:38.700Z,178.89
2023-05-10T12:09:43.841Z,179.37
2023-05-10T12:10:39.650Z,179.37
2023-05-10T12:11:39.101Z,176.65
2023-05-10T12:12:38.609Z,176.26
2023-05-10T12:13:38.590Z,176.86
2023-05-10T12:14:38.649Z,175.34
2023-05-10T12:15:38.554Z,174.80
2023-05-10T12:16:38.616Z,173.40
2023-05-10T12:17:38.517Z,174.08
2023-05-10T12:18:38.669Z,173.45
2023-05-10T12:19:38.478Z,172.26
2023-05-10T12:20:38.473Z,172.86
2023-05-10T12:21:38.483Z,172.12
2023-05-10T12:22:38.475Z,172.14
2023-05-10T12:23:38.380Z,171.30
2023-05-10T12:24:38.392Z,170.65
2023-05-10T12:25:38.344Z,170.58
2023-05-10T12:26:38.334Z,170.13
2023-05-10T12:27:38.301Z,170.14
2023-05-10T12:28:38.289Z,169.31
2023-05-10T12:29:38.281Z,169.85
2023-05-10T12:30:38.274Z,168.90
2023-05-10T12:31:38.289Z,168.25
2023-05-10T12:32:38.240Z,167.57
2023-05-10T12:33:38.188Z,166.86
2023-05-10T12:34:38.177Z,167.12
2023-05-10T12:35:38.166Z,166.25